Main page
METAR-TAF:

METAR-TAF

Airports :

Bournemouth Airport

Bournemouth, England

latitude: 50-47N, longitude: 001-50W, elevation: 11 m

Current weather observation

The report was made 52 minutes ago, at 20:20 UTC
Wind 12 kt from the South with gusts up to 22 kt
Temperature 16°C
Humidity 77%
Pressure 1001 hPa
Visibility 10 km or more
Overcast at a height of 2500 ft

METAR: EGHH 282020Z 17012G22KT 9999 OVC025 16/12 Q1001

Time: 22:12 (21:12 UTC)

Forecast

The report was made 1 hour and 17 minutes ago, at 19:55 UTC
Forecast valid from 28 at 21 UTC to 28 at 23 UTC
Wind 15 kt from the South
Visibility 10 km or more
Scattered clouds at a height of 3500 ft
Temporary
from 28 at 21 UTC to 28 at 23 UTC
Wind 18 kt from the South with gusts up to 28 kt
Probability 30% :
Temporary
from 28 at 21 UTC to 28 at 23 UTC
Visibility: 6000 m
Broken clouds at a height of 1200 ft
rain

TAF: EGHH 281955Z 2821/2823 18015KT 9999 SCT035 TEMPO 2821/2823 19018G28KT PROB30 TEMPO 2821/2823 6000 RA BKN012

Weather observations and forecasts of more than 4000 airports (METAR and TAF reports).

The available stations are represented by yellow and red dots on the map.

Hover mouse over dot to see the name of the station.

Then click to see weather observations and forecasts.

To change the map : click on the green buttons with a black cross to zoom in, on the green button with a dash to zoom out, or on the green arrows for adjacent maps.


METAR-TAF: